sensor_id;sensor_type;location;lat;lon;timestamp;pressure;altitude;pressure_sealevel;temperature;humidity
8416;BME280;4245;42.120;24.732;2022-11-03T00:01:32;99635.56;;;18.94;40.14
8416;BME280;4245;42.120;24.732;2022-11-03T00:03:58;99627.59;;;19.20;39.45
8416;BME280;4245;42.120;24.732;2022-11-03T00:06:25;99643.53;;;19.31;38.94
8416;BME280;4245;42.120;24.732;2022-11-03T00:08:52;99634.81;;;19.37;38.88
8416;BME280;4245;42.120;24.732;2022-11-03T00:11:19;99629.22;;;19.48;38.51
8416;BME280;4245;42.120;24.732;2022-11-03T00:13:45;99644.00;;;19.44;38.63
8416;BME280;4245;42.120;24.732;2022-11-03T00:16:12;99631.66;;;19.41;38.87
8416;BME280;4245;42.120;24.732;2022-11-03T00:18:40;99642.59;;;19.40;38.83
8416;BME280;4245;42.120;24.732;2022-11-03T00:21:09;99630.41;;;19.45;38.61
8416;BME280;4245;42.120;24.732;2022-11-03T00:23:38;99631.59;;;19.51;38.26
8416;BME280;4245;42.120;24.732;2022-11-03T00:26:07;99633.94;;;19.46;38.65
8416;BME280;4245;42.120;24.732;2022-11-03T00:28:35;99635.38;;;19.58;38.30
8416;BME280;4245;42.120;24.732;2022-11-03T00:31:06;99635.38;;;19.58;38.41
8416;BME280;4245;42.120;24.732;2022-11-03T00:33:33;99640.16;;;19.64;38.26
8416;BME280;4245;42.120;24.732;2022-11-03T00:36:02;99637.50;;;19.72;38.10
8416;BME280;4245;42.120;24.732;2022-11-03T00:38:30;99639.44;;;19.80;37.78
8416;BME280;4245;42.120;24.732;2022-11-03T00:40:58;99643.97;;;19.79;37.76
8416;BME280;4245;42.120;24.732;2022-11-03T00:43:27;99636.41;;;19.83;37.51
8416;BME280;4245;42.120;24.732;2022-11-03T00:45:55;99643.59;;;20.00;37.14
8416;BME280;4245;42.120;24.732;2022-11-03T00:48:22;99638.78;;;20.12;36.83
8416;BME280;4245;42.120;24.732;2022-11-03T00:50:59;99640.75;;;20.02;37.05
8416;BME280;4245;42.120;24.732;2022-11-03T00:53:29;99634.66;;;20.00;37.07
8416;BME280;4245;42.120;24.732;2022-11-03T00:55:56;99633.13;;;19.97;37.11
8416;BME280;4245;42.120;24.732;2022-11-03T00:58:22;99631.16;;;19.99;36.96
8416;BME280;4245;42.120;24.732;2022-11-03T01:00:49;99631.91;;;19.91;37.18
8416;BME280;4245;42.120;24.732;2022-11-03T01:03:16;99634.28;;;19.69;37.48
8416;BME280;4245;42.120;24.732;2022-11-03T01:05:43;99626.47;;;19.83;37.40
8416;BME280;4245;42.120;24.732;2022-11-03T01:08:32;99630.41;;;19.71;37.62
8416;BME280;4245;42.120;24.732;2022-11-03T01:11:09;99626.97;;;19.61;37.93
8416;BME280;4245;42.120;24.732;2022-11-03T01:13:54;99621.38;;;19.80;37.57
8416;BME280;4245;42.120;24.732;2022-11-03T01:16:21;99629.41;;;19.72;37.63
8416;BME280;4245;42.120;24.732;2022-11-03T01:18:48;99628.00;;;19.60;37.78
8416;BME280;4245;42.120;24.732;2022-11-03T01:21:15;99628.22;;;19.31;38.54
8416;BME280;4245;42.120;24.732;2022-11-03T01:23:43;99625.44;;;19.23;38.72
8416;BME280;4245;42.120;24.732;2022-11-03T01:26:11;99634.44;;;19.14;38.84
8416;BME280;4245;42.120;24.732;2022-11-03T01:28:40;99632.97;;;19.20;38.66
8416;BME280;4245;42.120;24.732;2022-11-03T01:31:09;99632.75;;;19.31;38.67
8416;BME280;4245;42.120;24.732;2022-11-03T01:33:37;99628.84;;;19.25;38.75
8416;BME280;4245;42.120;24.732;2022-11-03T01:36:04;99625.75;;;19.02;39.28
8416;BME280;4245;42.120;24.732;2022-11-03T01:38:31;99625.19;;;18.99;39.67
8416;BME280;4245;42.120;24.732;2022-11-03T01:41:00;99625.06;;;19.00;39.61
8416;BME280;4245;42.120;24.732;2022-11-03T01:43:28;99634.03;;;18.91;39.94
8416;BME280;4245;42.120;24.732;2022-11-03T01:46:02;99635.03;;;18.90;40.06
8416;BME280;4245;42.120;24.732;2022-11-03T01:48:34;99642.47;;;18.79;40.17
8416;BME280;4245;42.120;24.732;2022-11-03T01:51:04;99643.69;;;18.66;40.60
8416;BME280;4245;42.120;24.732;2022-11-03T01:53:32;99643.44;;;18.50;41.29
8416;BME280;4245;42.120;24.732;2022-11-03T01:56:01;99640.91;;;18.58;41.22
8416;BME280;4245;42.120;24.732;2022-11-03T01:58:30;99639.91;;;18.50;40.97
8416;BME280;4245;42.120;24.732;2022-11-03T02:01:00;99642.84;;;18.66;40.66
8416;BME280;4245;42.120;24.732;2022-11-03T02:03:31;99638.56;;;18.73;40.62
8416;BME280;4245;42.120;24.732;2022-11-03T02:06:00;99631.75;;;18.69;40.69
8416;BME280;4245;42.120;24.732;2022-11-03T02:08:33;99640.84;;;18.68;40.62
8416;BME280;4245;42.120;24.732;2022-11-03T02:11:02;99637.25;;;18.77;40.36
8416;BME280;4245;42.120;24.732;2022-11-03T02:13:49;99643.63;;;18.76;40.38
8416;BME280;4245;42.120;24.732;2022-11-03T02:16:17;99635.88;;;18.73;40.40
8416;BME280;4245;42.120;24.732;2022-11-03T02:18:45;99627.00;;;18.63;40.96
8416;BME280;4245;42.120;24.732;2022-11-03T02:21:22;99635.56;;;18.76;40.42
8416;BME280;4245;42.120;24.732;2022-11-03T02:23:56;99633.00;;;18.75;40.47
8416;BME280;4245;42.120;24.732;2022-11-03T02:26:26;99635.50;;;18.86;39.87
8416;BME280;4245;42.120;24.732;2022-11-03T02:28:53;99633.19;;;18.91;39.54
8416;BME280;4245;42.120;24.732;2022-11-03T02:31:28;99632.53;;;19.06;39.20
8416;BME280;4245;42.120;24.732;2022-11-03T02:34:01;99629.69;;;19.26;38.50
8416;BME280;4245;42.120;24.732;2022-11-03T02:36:33;99637.97;;;19.32;38.45
8416;BME280;4245;42.120;24.732;2022-11-03T02:39:04;99638.91;;;19.41;38.22
8416;BME280;4245;42.120;24.732;2022-11-03T02:41:36;99644.00;;;19.44;38.13
8416;BME280;4245;42.120;24.732;2022-11-03T02:44:04;99647.47;;;19.36;37.99
8416;BME280;4245;42.120;24.732;2022-11-03T02:46:33;99645.25;;;19.49;37.81
8416;BME280;4245;42.120;24.732;2022-11-03T02:49:01;99640.59;;;19.42;37.90
8416;BME280;4245;42.120;24.732;2022-11-03T02:51:28;99647.25;;;19.47;37.62
8416;BME280;4245;42.120;24.732;2022-11-03T02:54:01;99639.16;;;19.47;37.61
8416;BME280;4245;42.120;24.732;2022-11-03T02:56:30;99646.38;;;19.65;37.09
8416;BME280;4245;42.120;24.732;2022-11-03T02:59:04;99650.38;;;19.78;36.90
8416;BME280;4245;42.120;24.732;2022-11-03T03:01:34;99639.97;;;19.83;36.64
8416;BME280;4245;42.120;24.732;2022-11-03T03:04:16;99647.06;;;19.84;36.58
8416;BME280;4245;42.120;24.732;2022-11-03T03:06:48;99654.47;;;19.90;36.28
8416;BME280;4245;42.120;24.732;2022-11-03T03:09:20;99653.47;;;19.91;36.17
8416;BME280;4245;42.120;24.732;2022-11-03T03:11:51;99638.69;;;19.95;35.84
8416;BME280;4245;42.120;24.732;2022-11-03T03:14:23;99651.88;;;19.99;35.90
8416;BME280;4245;42.120;24.732;2022-11-03T03:16:57;99659.97;;;19.99;35.89
8416;BME280;4245;42.120;24.732;2022-11-03T03:19:37;99660.94;;;19.98;35.67
8416;BME280;4245;42.120;24.732;2022-11-03T03:22:12;99663.13;;;19.94;35.88
8416;BME280;4245;42.120;24.732;2022-11-03T03:24:46;99661.09;;;19.96;35.91
8416;BME280;4245;42.120;24.732;2022-11-03T03:27:15;99662.56;;;19.90;35.96
8416;BME280;4245;42.120;24.732;2022-11-03T03:29:47;99653.47;;;19.91;35.89
8416;BME280;4245;42.120;24.732;2022-11-03T03:32:19;99652.59;;;19.83;36.22
8416;BME280;4245;42.120;24.732;2022-11-03T03:34:48;99664.13;;;19.75;36.33
8416;BME280;4245;42.120;24.732;2022-11-03T03:37:16;99660.81;;;19.81;36.27
8416;BME280;4245;42.120;24.732;2022-11-03T03:39:52;99660.16;;;19.79;36.13
8416;BME280;4245;42.120;24.732;2022-11-03T03:42:23;99658.59;;;19.77;36.47
8416;BME280;4245;42.120;24.732;2022-11-03T03:44:54;99656.75;;;19.77;36.44
8416;BME280;4245;42.120;24.732;2022-11-03T03:47:24;99656.91;;;19.76;36.33
8416;BME280;4245;42.120;24.732;2022-11-03T03:49:52;99657.38;;;19.71;36.48
8416;BME280;4245;42.120;24.732;2022-11-03T03:52:19;99660.53;;;19.84;36.10
8416;BME280;4245;42.120;24.732;2022-11-03T03:54:46;99650.22;;;19.80;36.13
8416;BME280;4245;42.120;24.732;2022-11-03T03:57:15;99652.44;;;19.84;35.96
8416;BME280;4245;42.120;24.732;2022-11-03T03:59:42;99654.09;;;19.85;35.99
8416;BME280;4245;42.120;24.732;2022-11-03T04:02:11;99653.34;;;19.93;35.73
8416;BME280;4245;42.120;24.732;2022-11-03T04:04:38;99657.19;;;19.90;35.88
8416;BME280;4245;42.120;24.732;2022-11-03T04:07:05;99650.75;;;19.83;36.08
8416;BME280;4245;42.120;24.732;2022-11-03T04:09:50;99653.53;;;19.74;36.27
8416;BME280;4245;42.120;24.732;2022-11-03T04:12:17;99655.75;;;19.78;36.33
8416;BME280;4245;42.120;24.732;2022-11-03T04:15:01;99650.56;;;19.59;36.47
8416;BME280;4245;42.120;24.732;2022-11-03T04:17:47;99664.31;;;19.56;36.87
8416;BME280;4245;42.120;24.732;2022-11-03T04:20:32;99665.03;;;19.58;37.18
8416;BME280;4245;42.120;24.732;2022-11-03T04:23:17;99662.66;;;19.55;37.08
8416;BME280;4245;42.120;24.732;2022-11-03T04:25:47;99653.63;;;19.46;37.32
8416;BME280;4245;42.120;24.732;2022-11-03T04:28:14;99659.53;;;19.32;37.55
8416;BME280;4245;42.120;24.732;2022-11-03T04:30:41;99650.69;;;19.40;37.38
8416;BME280;4245;42.120;24.732;2022-11-03T04:33:12;99646.28;;;19.39;37.56
8416;BME280;4245;42.120;24.732;2022-11-03T04:35:40;99652.22;;;19.25;37.84
8416;BME280;4245;42.120;24.732;2022-11-03T04:38:18;99655.44;;;19.28;37.85
8416;BME280;4245;42.120;24.732;2022-11-03T04:40:48;99655.53;;;19.19;38.07
8416;BME280;4245;42.120;24.732;2022-11-03T04:43:18;99657.28;;;19.10;38.12
8416;BME280;4245;42.120;24.732;2022-11-03T04:45:46;99670.91;;;19.08;38.43
8416;BME280;4245;42.120;24.732;2022-11-03T04:48:18;99658.22;;;19.19;38.19
8416;BME280;4245;42.120;24.732;2022-11-03T04:50:48;99671.16;;;19.15;38.23
8416;BME280;4245;42.120;24.732;2022-11-03T04:53:16;99665.75;;;19.15;38.19
8416;BME280;4245;42.120;24.732;2022-11-03T04:55:45;99673.00;;;19.15;38.18
8416;BME280;4245;42.120;24.732;2022-11-03T04:58:17;99669.00;;;19.19;38.22
8416;BME280;4245;42.120;24.732;2022-11-03T05:00:45;99666.28;;;19.19;38.02
8416;BME280;4245;42.120;24.732;2022-11-03T05:03:16;99672.84;;;19.16;38.05
8416;BME280;4245;42.120;24.732;2022-11-03T05:05:43;99678.00;;;19.27;38.07
8416;BME280;4245;42.120;24.732;2022-11-03T05:08:10;99676.94;;;19.38;37.88
8416;BME280;4245;42.120;24.732;2022-11-03T05:10:37;99673.63;;;19.26;37.96
8416;BME280;4245;42.120;24.732;2022-11-03T05:13:09;99682.16;;;19.22;37.92
8416;BME280;4245;42.120;24.732;2022-11-03T05:15:42;99680.69;;;19.27;38.05
8416;BME280;4245;42.120;24.732;2022-11-03T05:18:17;99685.22;;;19.27;38.10
8416;BME280;4245;42.120;24.732;2022-11-03T05:20:48;99689.63;;;19.28;38.04
8416;BME280;4245;42.120;24.732;2022-11-03T05:23:17;99688.41;;;19.40;38.06
8416;BME280;4245;42.120;24.732;2022-11-03T05:25:46;99692.63;;;19.42;40.09
8416;BME280;4245;42.120;24.732;2022-11-03T05:28:19;99688.34;;;19.67;45.55
8416;BME280;4245;42.120;24.732;2022-11-03T05:30:47;99696.47;;;19.93;40.14
8416;BME280;4245;42.120;24.732;2022-11-03T05:33:18;99705.78;;;19.99;38.39
8416;BME280;4245;42.120;24.732;2022-11-03T05:35:46;99701.78;;;20.03;40.74
8416;BME280;4245;42.120;24.732;2022-11-03T05:38:14;99701.25;;;20.25;37.85
8416;BME280;4245;42.120;24.732;2022-11-03T05:40:42;99706.16;;;20.29;40.00
8416;BME280;4245;42.120;24.732;2022-11-03T05:43:12;99705.78;;;20.24;37.92
8416;BME280;4245;42.120;24.732;2022-11-03T05:45:40;99719.53;;;20.31;37.36
8416;BME280;4245;42.120;24.732;2022-11-03T05:48:14;99720.97;;;20.25;38.34
8416;BME280;4245;42.120;24.732;2022-11-03T05:50:44;99719.75;;;20.37;37.45
8416;BME280;4245;42.120;24.732;2022-11-03T05:53:24;99734.63;;;20.42;37.23
8416;BME280;4245;42.120;24.732;2022-11-03T05:55:52;99732.06;;;20.40;38.89
8416;BME280;4245;42.120;24.732;2022-11-03T05:58:23;99738.25;;;20.58;38.39
8416;BME280;4245;42.120;24.732;2022-11-03T06:00:51;99745.38;;;20.67;37.52
8416;BME280;4245;42.120;24.732;2022-11-03T06:03:21;99742.75;;;20.75;35.88
8416;BME280;4245;42.120;24.732;2022-11-03T06:05:50;99743.53;;;20.68;36.36
8416;BME280;4245;42.120;24.732;2022-11-03T06:08:19;99754.53;;;20.74;36.50
8416;BME280;4245;42.120;24.732;2022-11-03T06:10:49;99753.97;;;20.97;36.63
8416;BME280;4245;42.120;24.732;2022-11-03T06:13:18;99757.63;;;21.21;35.89
8416;BME280;4245;42.120;24.732;2022-11-03T06:15:47;99756.72;;;21.47;35.01
8416;BME280;4245;42.120;24.732;2022-11-03T06:18:18;99764.72;;;21.73;nan
8416;BME280;4245;42.120;24.732;2022-11-03T06:20:50;99764.56;;;21.82;35.27
8416;BME280;4245;42.120;24.732;2022-11-03T06:23:18;99777.94;;;22.00;34.20
8416;BME280;4245;42.120;24.732;2022-11-03T06:25:47;99779.47;;;21.94;34.11
8416;BME280;4245;42.120;24.732;2022-11-03T06:28:17;99781.28;;;21.86;33.88
8416;BME280;4245;42.120;24.732;2022-11-03T06:30:46;99792.59;;;21.81;34.24
8416;BME280;4245;42.120;24.732;2022-11-03T06:33:15;99800.53;;;21.75;34.01
8416;BME280;4245;42.120;24.732;2022-11-03T06:35:46;99811.03;;;21.86;33.63
8416;BME280;4245;42.120;24.732;2022-11-03T06:38:18;99817.00;;;22.05;34.40
8416;BME280;4245;42.120;24.732;2022-11-03T06:40:48;99819.91;;;22.36;34.41
8416;BME280;4245;42.120;24.732;2022-11-03T06:43:19;99818.50;;;22.57;36.27
8416;BME280;4245;42.120;24.732;2022-11-03T06:45:51;99816.47;;;22.83;33.97
8416;BME280;4245;42.120;24.732;2022-11-03T06:48:24;99823.41;;;22.93;34.32
8416;BME280;4245;42.120;24.732;2022-11-03T06:50:52;99827.97;;;22.93;34.24
8416;BME280;4245;42.120;24.732;2022-11-03T06:53:22;99834.41;;;22.68;36.18
8416;BME280;4245;42.120;24.732;2022-11-03T06:55:50;99836.66;;;22.40;34.76
8416;BME280;4245;42.120;24.732;2022-11-03T06:58:22;99833.75;;;22.49;34.32
8416;BME280;4245;42.120;24.732;2022-11-03T07:00:51;99831.38;;;22.14;35.32
8416;BME280;4245;42.120;24.732;2022-11-03T07:03:22;99842.53;;;22.27;35.77
8416;BME280;4245;42.120;24.732;2022-11-03T07:05:49;99845.59;;;22.32;35.65
8416;BME280;4245;42.120;24.732;2022-11-03T07:08:23;99842.56;;;22.60;35.19
8416;BME280;4245;42.120;24.732;2022-11-03T07:10:57;99840.19;;;22.40;35.14
8416;BME280;4245;42.120;24.732;2022-11-03T07:13:26;99844.25;;;22.52;34.85
8416;BME280;4245;42.120;24.732;2022-11-03T07:15:54;99854.75;;;22.64;35.10
8416;BME280;4245;42.120;24.732;2022-11-03T07:18:23;99857.09;;;22.59;35.26
8416;BME280;4245;42.120;24.732;2022-11-03T07:20:52;99859.84;;;22.75;33.71
8416;BME280;4245;42.120;24.732;2022-11-03T07:23:23;99853.03;;;22.46;34.75
8416;BME280;4245;42.120;24.732;2022-11-03T07:25:52;99854.94;;;22.46;34.20
8416;BME280;4245;42.120;24.732;2022-11-03T07:28:22;99855.75;;;22.63;33.86
8416;BME280;4245;42.120;24.732;2022-11-03T07:30:49;99858.47;;;22.79;34.18
8416;BME280;4245;42.120;24.732;2022-11-03T07:33:20;99860.84;;;22.49;33.62
8416;BME280;4245;42.120;24.732;2022-11-03T07:35:48;99859.16;;;22.73;34.30
8416;BME280;4245;42.120;24.732;2022-11-03T07:38:19;99863.34;;;23.08;33.25
8416;BME280;4245;42.120;24.732;2022-11-03T07:40:48;99861.59;;;23.15;33.41
8416;BME280;4245;42.120;24.732;2022-11-03T07:43:18;99859.81;;;23.54;34.50
8416;BME280;4245;42.120;24.732;2022-11-03T07:45:48;99859.81;;;23.85;32.23
8416;BME280;4245;42.120;24.732;2022-11-03T07:48:20;99858.28;;;23.82;32.22
8416;BME280;4245;42.120;24.732;2022-11-03T07:50:49;99857.44;;;23.82;32.15
8416;BME280;4245;42.120;24.732;2022-11-03T07:53:20;99852.50;;;23.55;32.56
8416;BME280;4245;42.120;24.732;2022-11-03T07:55:50;99849.09;;;23.14;33.08
8416;BME280;4245;42.120;24.732;2022-11-03T07:58:22;99848.13;;;22.99;33.48
8416;BME280;4245;42.120;24.732;2022-11-03T08:00:52;99846.09;;;22.92;34.14
8416;BME280;4245;42.120;24.732;2022-11-03T08:03:29;99835.31;;;23.31;33.72
8416;BME280;4245;42.120;24.732;2022-11-03T08:05:58;99830.75;;;23.71;32.87
8416;BME280;4245;42.120;24.732;2022-11-03T08:08:25;99835.94;;;24.03;32.67
8416;BME280;4245;42.120;24.732;2022-11-03T08:10:53;99831.44;;;24.41;32.67
8416;BME280;4245;42.120;24.732;2022-11-03T08:13:20;99832.09;;;24.81;31.54
8416;BME280;4245;42.120;24.732;2022-11-03T08:15:46;99832.31;;;25.08;30.94
8416;BME280;4245;42.120;24.732;2022-11-03T08:18:13;99832.63;;;25.28;30.67
8416;BME280;4245;42.120;24.732;2022-11-03T08:20:40;99841.72;;;25.35;30.46
8416;BME280;4245;42.120;24.732;2022-11-03T08:23:06;99838.53;;;25.17;30.49
8416;BME280;4245;42.120;24.732;2022-11-03T08:25:35;99832.91;;;25.04;30.52
8416;BME280;4245;42.120;24.732;2022-11-03T08:28:04;99835.72;;;25.25;30.48
8416;BME280;4245;42.120;24.732;2022-11-03T08:30:31;99834.47;;;25.57;30.27
8416;BME280;4245;42.120;24.732;2022-11-03T08:32:58;99846.00;;;25.74;29.48
8416;BME280;4245;42.120;24.732;2022-11-03T08:35:25;99840.00;;;25.49;29.56
8416;BME280;4245;42.120;24.732;2022-11-03T08:37:52;99844.53;;;24.98;30.31
8416;BME280;4245;42.120;24.732;2022-11-03T08:40:19;99844.63;;;25.34;29.87
8416;BME280;4245;42.120;24.732;2022-11-03T08:42:45;99844.19;;;25.81;30.04
8416;BME280;4245;42.120;24.732;2022-11-03T08:45:14;99846.88;;;26.53;28.40
8416;BME280;4245;42.120;24.732;2022-11-03T08:47:40;99847.25;;;26.77;28.26
8416;BME280;4245;42.120;24.732;2022-11-03T08:50:07;99838.53;;;27.16;27.39
8416;BME280;4245;42.120;24.732;2022-11-03T08:52:34;99844.09;;;27.36;26.91
8416;BME280;4245;42.120;24.732;2022-11-03T08:55:01;99841.97;;;26.91;27.08
8416;BME280;4245;42.120;24.732;2022-11-03T08:57:28;99841.72;;;27.20;27.04
8416;BME280;4245;42.120;24.732;2022-11-03T08:59:55;99830.41;;;27.23;27.04
8416;BME280;4245;42.120;24.732;2022-11-03T09:02:23;99839.66;;;27.63;26.65
8416;BME280;4245;42.120;24.732;2022-11-03T09:04:50;99844.66;;;27.59;26.52
8416;BME280;4245;42.120;24.732;2022-11-03T09:07:17;99847.78;;;27.15;26.29
8416;BME280;4245;42.120;24.732;2022-11-03T09:09:43;99839.03;;;26.22;27.97
8416;BME280;4245;42.120;24.732;2022-11-03T09:12:10;99836.91;;;26.66;27.22
8416;BME280;4245;42.120;24.732;2022-11-03T09:14:37;99837.53;;;26.90;27.24
8416;BME280;4245;42.120;24.732;2022-11-03T09:17:04;99834.84;;;27.31;26.71
8416;BME280;4245;42.120;24.732;2022-11-03T09:19:32;99834.19;;;27.63;26.45
8416;BME280;4245;42.120;24.732;2022-11-03T09:21:58;99831.47;;;27.63;26.69
8416;BME280;4245;42.120;24.732;2022-11-03T09:24:25;99822.03;;;27.65;26.60
8416;BME280;4245;42.120;24.732;2022-11-03T09:26:52;99819.19;;;28.00;26.03
8416;BME280;4245;42.120;24.732;2022-11-03T09:29:19;99821.69;;;27.95;26.21
8416;BME280;4245;42.120;24.732;2022-11-03T09:31:46;99811.50;;;28.43;26.17
8416;BME280;4245;42.120;24.732;2022-11-03T09:34:13;99808.78;;;28.82;25.37
8416;BME280;4245;42.120;24.732;2022-11-03T09:36:41;99806.84;;;28.96;25.05
8416;BME280;4245;42.120;24.732;2022-11-03T09:39:08;99805.13;;;29.15;25.01
8416;BME280;4245;42.120;24.732;2022-11-03T09:41:34;99806.00;;;29.02;24.64
8416;BME280;4245;42.120;24.732;2022-11-03T09:44:01;99805.75;;;29.17;24.68
8416;BME280;4245;42.120;24.732;2022-11-03T09:46:28;99807.81;;;29.41;24.55
8416;BME280;4245;42.120;24.732;2022-11-03T09:48:56;99804.13;;;29.67;24.27
8416;BME280;4245;42.120;24.732;2022-11-03T09:51:25;99804.69;;;29.82;24.10
8416;BME280;4245;42.120;24.732;2022-11-03T09:53:55;99794.09;;;29.92;23.96
8416;BME280;4245;42.120;24.732;2022-11-03T09:56:24;99799.72;;;30.35;23.64
8416;BME280;4245;42.120;24.732;2022-11-03T09:58:51;99800.41;;;30.80;23.10
8416;BME280;4245;42.120;24.732;2022-11-03T10:01:18;99796.75;;;30.86;23.11
8416;BME280;4245;42.120;24.732;2022-11-03T10:03:45;99786.75;;;31.17;22.82
8416;BME280;4245;42.120;24.732;2022-11-03T10:06:12;99791.25;;;31.29;22.36
8416;BME280;4245;42.120;24.732;2022-11-03T10:08:42;99780.59;;;30.78;22.53
8416;BME280;4245;42.120;24.732;2022-11-03T10:11:11;99777.38;;;30.63;23.26
8416;BME280;4245;42.120;24.732;2022-11-03T10:13:42;99778.72;;;30.97;23.05
8416;BME280;4245;42.120;24.732;2022-11-03T10:16:12;99782.66;;;31.08;22.50
8416;BME280;4245;42.120;24.732;2022-11-03T10:18:40;99780.28;;;30.68;23.06
8416;BME280;4245;42.120;24.732;2022-11-03T10:21:14;99768.66;;;30.41;23.46
8416;BME280;4245;42.120;24.732;2022-11-03T10:23:41;99768.31;;;30.81;22.96
8416;BME280;4245;42.120;24.732;2022-11-03T10:26:11;99764.41;;;31.13;22.98
8416;BME280;4245;42.120;24.732;2022-11-03T10:28:38;99757.75;;;31.39;22.78
8416;BME280;4245;42.120;24.732;2022-11-03T10:31:07;99748.28;;;31.53;22.60
8416;BME280;4245;42.120;24.732;2022-11-03T10:33:50;99751.13;;;31.28;22.63
8416;BME280;4245;42.120;24.732;2022-11-03T10:36:22;99749.78;;;31.19;22.86
8416;BME280;4245;42.120;24.732;2022-11-03T10:38:51;99742.38;;;31.56;22.87
8416;BME280;4245;42.120;24.732;2022-11-03T10:41:20;99745.22;;;31.79;22.53
8416;BME280;4245;42.120;24.732;2022-11-03T10:44:02;99740.59;;;31.62;22.21
8416;BME280;4245;42.120;24.732;2022-11-03T10:46:30;99735.56;;;31.59;22.50
8416;BME280;4245;42.120;24.732;2022-11-03T10:49:02;99741.31;;;31.21;22.87
8416;BME280;4245;42.120;24.732;2022-11-03T10:51:31;99733.22;;;31.26;22.98
8416;BME280;4245;42.120;24.732;2022-11-03T10:53:58;99730.16;;;31.34;22.56
8416;BME280;4245;42.120;24.732;2022-11-03T10:56:26;99724.50;;;31.65;22.77
8416;BME280;4245;42.120;24.732;2022-11-03T10:58:54;99724.69;;;31.93;22.19
8416;BME280;4245;42.120;24.732;2022-11-03T11:01:22;99718.34;;;31.93;22.28
8416;BME280;4245;42.120;24.732;2022-11-03T11:03:49;99703.28;;;32.37;21.99
8416;BME280;4245;42.120;24.732;2022-11-03T11:06:18;99701.13;;;32.51;21.81
8416;BME280;4245;42.120;24.732;2022-11-03T11:08:47;99703.16;;;32.78;21.44
8416;BME280;4245;42.120;24.732;2022-11-03T11:11:15;99695.41;;;32.75;21.48
8416;BME280;4245;42.120;24.732;2022-11-03T11:13:43;99693.31;;;33.06;21.20
8416;BME280;4245;42.120;24.732;2022-11-03T11:16:48;99683.75;;;33.65;20.61
8416;BME280;4245;42.120;24.732;2022-11-03T11:19:15;99686.38;;;33.72;20.58
8416;BME280;4245;42.120;24.732;2022-11-03T11:21:59;99679.88;;;33.49;20.97
8416;BME280;4245;42.120;24.732;2022-11-03T11:24:58;99679.88;;;33.78;20.93
8416;BME280;4245;42.120;24.732;2022-11-03T11:27:54;99673.59;;;33.37;20.74
8416;BME280;4245;42.120;24.732;2022-11-03T11:33:26;99673.13;;;33.85;20.73
8416;BME280;4245;42.120;24.732;2022-11-03T11:38:57;99664.19;;;34.12;20.08
8416;BME280;4245;42.120;24.732;2022-11-03T11:47:44;99643.06;;;33.55;20.89
8416;BME280;4245;42.120;24.732;2022-11-03T11:50:28;99643.47;;;33.31;21.26
8416;BME280;4245;42.120;24.732;2022-11-03T11:53:03;99638.66;;;32.86;21.54
8416;BME280;4245;42.120;24.732;2022-11-03T11:55:39;99634.28;;;32.04;21.99
8416;BME280;4245;42.120;24.732;2022-11-03T11:58:14;99638.16;;;31.61;22.45
8416;BME280;4245;42.120;24.732;2022-11-03T12:00:50;99631.50;;;31.92;22.36
8416;BME280;4245;42.120;24.732;2022-11-03T12:03:23;99636.75;;;32.05;22.10
8416;BME280;4245;42.120;24.732;2022-11-03T12:05:52;99619.91;;;31.90;22.33
8416;BME280;4245;42.120;24.732;2022-11-03T12:08:22;99618.81;;;31.38;22.54
8416;BME280;4245;42.120;24.732;2022-11-03T12:10:51;99610.56;;;31.38;22.72
8416;BME280;4245;42.120;24.732;2022-11-03T12:13:49;99615.38;;;30.40;23.46
8416;BME280;4245;42.120;24.732;2022-11-03T12:16:27;99609.78;;;30.10;24.06
8416;BME280;4245;42.120;24.732;2022-11-03T12:18:53;99608.16;;;30.02;23.69
8416;BME280;4245;42.120;24.732;2022-11-03T12:21:47;99604.50;;;29.27;25.11
8416;BME280;4245;42.120;24.732;2022-11-03T12:24:47;99608.44;;;29.69;24.42
8416;BME280;4245;42.120;24.732;2022-11-03T12:27:38;99601.59;;;29.22;24.98
8416;BME280;4245;42.120;24.732;2022-11-03T12:30:11;99591.06;;;29.19;24.82
8416;BME280;4245;42.120;24.732;2022-11-03T12:32:39;99604.97;;;29.56;24.64
8416;BME280;4245;42.120;24.732;2022-11-03T12:35:07;99592.88;;;29.88;24.17
8416;BME280;4245;42.120;24.732;2022-11-03T12:37:36;99591.78;;;30.20;23.82
8416;BME280;4245;42.120;24.732;2022-11-03T12:40:04;99595.63;;;30.31;24.00
8416;BME280;4245;42.120;24.732;2022-11-03T12:42:31;99591.19;;;30.12;23.92
8416;BME280;4245;42.120;24.732;2022-11-03T12:44:58;99582.34;;;29.04;25.04
8416;BME280;4245;42.120;24.732;2022-11-03T12:47:25;99585.56;;;29.26;24.62
8416;BME280;4245;42.120;24.732;2022-11-03T12:49:52;99580.28;;;29.24;24.83
8416;BME280;4245;42.120;24.732;2022-11-03T12:52:18;99578.56;;;29.36;24.85
8416;BME280;4245;42.120;24.732;2022-11-03T12:54:47;99584.13;;;29.23;24.94
8416;BME280;4245;42.120;24.732;2022-11-03T12:57:13;99586.59;;;28.23;25.55
8416;BME280;4245;42.120;24.732;2022-11-03T12:59:40;99578.41;;;27.24;27.04
8416;BME280;4245;42.120;24.732;2022-11-03T13:02:09;99575.38;;;26.93;27.34
8416;BME280;4245;42.120;24.732;2022-11-03T13:04:36;99576.09;;;26.60;27.70
8416;BME280;4245;42.120;24.732;2022-11-03T13:07:02;99572.81;;;26.30;28.71
8416;BME280;4245;42.120;24.732;2022-11-03T13:09:29;99562.94;;;26.29;28.64
8416;BME280;4245;42.120;24.732;2022-11-03T13:11:57;99568.09;;;26.52;28.79
8416;BME280;4245;42.120;24.732;2022-11-03T13:14:42;99572.16;;;26.69;28.19
8416;BME280;4245;42.120;24.732;2022-11-03T13:17:09;99571.28;;;26.62;28.12
8416;BME280;4245;42.120;24.732;2022-11-03T13:19:35;99569.94;;;26.45;28.58
8416;BME280;4245;42.120;24.732;2022-11-03T13:22:02;99562.19;;;26.14;28.52
8416;BME280;4245;42.120;24.732;2022-11-03T13:24:29;99569.56;;;25.86;29.17
8416;BME280;4245;42.120;24.732;2022-11-03T13:26:57;99558.47;;;25.38;29.66
8416;BME280;4245;42.120;24.732;2022-11-03T13:29:24;99555.31;;;25.14;30.03
8416;BME280;4245;42.120;24.732;2022-11-03T13:31:51;99556.44;;;24.98;30.63
8416;BME280;4245;42.120;24.732;2022-11-03T13:34:17;99561.88;;;24.83;30.83
8416;BME280;4245;42.120;24.732;2022-11-03T13:36:44;99557.19;;;24.92;30.99
8416;BME280;4245;42.120;24.732;2022-11-03T13:39:11;99567.94;;;25.00;30.93